createdAt,value
2023-10-10T00:01:39.857Z,2.55
2023-10-10T00:03:43.776Z,2.15
2023-10-10T00:05:46.221Z,1.98
2023-10-10T00:07:48.124Z,1.90
2023-10-10T00:09:52.056Z,1.40
2023-10-10T00:11:54.851Z,1.35
2023-10-10T00:14:06.737Z,1.73
2023-10-10T00:16:09.870Z,1.83
2023-10-10T00:18:12.788Z,1.60
2023-10-10T00:20:18.361Z,1.35
2023-10-10T00:22:28.149Z,2.00
2023-10-10T00:24:33.078Z,1.73
2023-10-10T00:26:35.952Z,1.80
2023-10-10T00:28:37.745Z,1.63
2023-10-10T00:30:44.851Z,1.77
2023-10-10T00:32:47.659Z,1.92
2023-10-10T00:34:50.359Z,1.85
2023-10-10T00:36:52.338Z,1.70
2023-10-10T00:39:07.477Z,2.00
2023-10-10T00:41:12.300Z,1.98
2023-10-10T00:43:17.198Z,2.00
2023-10-10T00:45:19.002Z,2.08
2023-10-10T00:47:25.852Z,2.28
2023-10-10T00:49:32.656Z,1.98
2023-10-10T00:51:35.293Z,2.63
2023-10-10T00:53:40.645Z,2.15
2023-10-10T00:55:42.827Z,2.10
2023-10-10T00:57:44.696Z,2.60
2023-10-10T00:59:47.696Z,2.40
2023-10-10T01:01:50.632Z,1.40
2023-10-10T01:03:52.651Z,2.10
2023-10-10T01:05:54.888Z,2.08
2023-10-10T01:08:00.640Z,2.10
2023-10-10T01:10:12.825Z,1.83
2023-10-10T01:12:14.846Z,2.08
2023-10-10T01:14:28.276Z,1.98
2023-10-10T01:16:30.383Z,2.00
2023-10-10T01:18:43.313Z,2.00
2023-10-10T01:20:48.053Z,2.03
2023-10-10T01:22:50.167Z,1.45
2023-10-10T01:24:53.826Z,2.05
2023-10-10T01:27:04.186Z,1.58
2023-10-10T01:29:25.039Z,1.98
2023-10-10T01:31:29.912Z,1.90
2023-10-10T01:33:35.922Z,1.63
2023-10-10T01:35:41.725Z,1.60
2023-10-10T01:37:45.218Z,1.70
2023-10-10T01:40:13.225Z,2.08
2023-10-10T01:42:17.897Z,2.03
2023-10-10T01:44:20.368Z,1.80
2023-10-10T01:46:29.569Z,2.22
2023-10-10T01:48:31.535Z,2.35
2023-10-10T01:50:33.401Z,2.00
2023-10-10T01:52:47.669Z,1.52
2023-10-10T01:54:54.388Z,2.10
2023-10-10T01:56:56.685Z,2.25
2023-10-10T01:58:58.400Z,2.38
2023-10-10T02:01:00.194Z,2.17
2023-10-10T02:03:08.581Z,2.20
2023-10-10T02:05:13.177Z,2.35
2023-10-10T02:07:24.137Z,2.90
2023-10-10T02:09:25.849Z,2.22
2023-10-10T02:11:28.473Z,2.55
2023-10-10T02:13:34.710Z,2.60
2023-10-10T02:15:37.970Z,2.25
2023-10-10T02:17:41.468Z,2.30
2023-10-10T02:19:43.681Z,2.58
2023-10-10T02:21:49.136Z,2.38
2023-10-10T02:23:55.144Z,2.58
2023-10-10T02:25:57.132Z,2.15
2023-10-10T02:28:04.535Z,2.03
2023-10-10T02:30:07.667Z,2.40
2023-10-10T02:32:14.308Z,2.40
2023-10-10T02:34:16.110Z,2.70
2023-10-10T02:36:18.118Z,2.47
2023-10-10T02:38:23.996Z,2.10
2023-10-10T02:40:32.452Z,1.95
2023-10-10T02:42:36.818Z,2.03
2023-10-10T02:44:38.621Z,2.15
2023-10-10T02:46:42.228Z,2.25
2023-10-10T02:48:44.078Z,2.00
2023-10-10T02:50:45.808Z,2.72
2023-10-10T02:52:47.567Z,2.53
2023-10-10T02:54:55.724Z,2.45
2023-10-10T02:57:25.922Z,2.03
2023-10-10T02:59:39.670Z,2.00
2023-10-10T03:01:58.033Z,2.67
2023-10-10T03:03:59.920Z,2.55
2023-10-10T03:06:07.764Z,2.40
2023-10-10T03:08:27.927Z,2.70
2023-10-10T03:10:43.099Z,2.88
2023-10-10T03:12:50.478Z,2.45
2023-10-10T03:14:55.194Z,2.63
2023-10-10T03:17:22.079Z,2.55
2023-10-10T03:19:34.300Z,2.38
2023-10-10T03:21:50.940Z,3.50
2023-10-10T03:24:08.571Z,2.90
2023-10-10T03:26:20.402Z,2.93
2023-10-10T03:28:29.567Z,2.83
2023-10-10T03:30:52.011Z,3.35
2023-10-10T03:33:17.921Z,2.25
2023-10-10T03:35:35.524Z,3.20
2023-10-10T03:37:55.079Z,2.67
2023-10-10T03:39:59.706Z,2.08
2023-10-10T03:42:39.609Z,2.33
2023-10-10T03:45:01.598Z,2.25
2023-10-10T03:47:03.344Z,2.58
2023-10-10T03:49:23.999Z,1.95
2023-10-10T03:51:44.381Z,2.65
2023-10-10T03:54:04.490Z,2.00
2023-10-10T03:56:24.876Z,2.20
2023-10-10T03:58:45.200Z,2.40
2023-10-10T04:01:05.587Z,2.60
2023-10-10T04:03:25.864Z,2.10
2023-10-10T04:05:46.390Z,2.88
2023-10-10T04:08:06.880Z,2.58
2023-10-10T04:10:27.197Z,2.30
2023-10-10T04:12:47.692Z,2.40
2023-10-10T04:15:08.142Z,2.13
2023-10-10T04:17:28.556Z,2.50
2023-10-10T04:19:49.522Z,2.42
2023-10-10T04:22:09.895Z,2.53
2023-10-10T04:24:29.866Z,2.63
2023-10-10T04:26:50.135Z,2.72
2023-10-10T04:29:10.679Z,2.97
2023-10-10T04:31:31.071Z,2.20
2023-10-10T04:33:51.571Z,2.45
2023-10-10T04:36:11.872Z,2.47
2023-10-10T04:38:32.370Z,2.40
2023-10-10T04:41:12.637Z,3.05
2023-10-10T04:43:32.795Z,2.80
2023-10-10T04:45:53.046Z,2.90
2023-10-10T04:48:13.162Z,3.05
2023-10-10T04:50:33.802Z,2.50
2023-10-10T04:52:54.607Z,3.03
2023-10-10T04:55:14.866Z,3.33
2023-10-10T04:57:34.880Z,2.75
2023-10-10T04:59:55.252Z,3.40
2023-10-10T05:02:15.348Z,2.88
2023-10-10T05:04:37.106Z,3.38
2023-10-10T05:06:57.591Z,3.50
2023-10-10T05:09:17.957Z,3.95
2023-10-10T05:11:38.179Z,3.42
2023-10-10T05:13:58.634Z,3.50
2023-10-10T05:16:24.855Z,5.50
2023-10-10T05:18:45.015Z,3.67
2023-10-10T05:21:05.527Z,3.55
2023-10-10T05:23:26.116Z,3.88
2023-10-10T05:25:34.222Z,3.25
2023-10-10T05:27:42.508Z,3.33
2023-10-10T05:29:44.655Z,3.67
2023-10-10T05:31:52.612Z,4.57
2023-10-10T05:33:54.596Z,3.78
2023-10-10T05:36:00.621Z,3.58
2023-10-10T05:38:02.754Z,4.10
2023-10-10T05:40:08.318Z,4.28
2023-10-10T05:42:10.173Z,4.65
2023-10-10T05:44:15.165Z,4.25
2023-10-10T05:46:17.390Z,4.60
2023-10-10T05:48:19.188Z,4.80
2023-10-10T05:50:23.506Z,4.57
2023-10-10T05:52:25.572Z,4.70
2023-10-10T05:54:27.298Z,3.97
2023-10-10T05:56:31.395Z,4.68
2023-10-10T05:58:33.174Z,4.47
2023-10-10T06:00:38.114Z,4.65
2023-10-10T06:02:40.289Z,5.05
2023-10-10T06:04:45.382Z,4.70
2023-10-10T06:06:47.585Z,5.47
2023-10-10T06:08:58.371Z,4.93
2023-10-10T06:11:01.343Z,5.53
2023-10-10T06:13:05.307Z,6.07
2023-10-10T06:15:08.178Z,5.07
2023-10-10T06:17:10.439Z,5.03
2023-10-10T06:19:22.492Z,6.30
2023-10-10T06:21:24.576Z,5.55
2023-10-10T06:23:27.373Z,6.40
2023-10-10T06:25:30.526Z,5.70
2023-10-10T06:27:37.935Z,5.57
2023-10-10T06:29:42.126Z,5.45
2023-10-10T06:31:45.056Z,5.65
2023-10-10T06:33:53.815Z,5.72
2023-10-10T06:36:24.009Z,6.00
2023-10-10T06:38:26.299Z,5.88
2023-10-10T06:40:29.880Z,5.05
2023-10-10T06:42:31.849Z,6.18
2023-10-10T06:44:37.698Z,6.00
2023-10-10T06:46:41.676Z,5.85
2023-10-10T06:48:43.406Z,6.07
2023-10-10T06:50:46.069Z,5.97
2023-10-10T06:52:48.519Z,6.05
2023-10-10T06:54:56.834Z,6.03
2023-10-10T06:57:01.555Z,5.95
2023-10-10T06:59:03.497Z,6.05
2023-10-10T07:01:06.251Z,5.43
2023-10-10T07:03:08.274Z,5.35
2023-10-10T07:05:17.060Z,6.10
2023-10-10T07:07:22.893Z,5.95
2023-10-10T07:09:31.242Z,5.72
2023-10-10T07:11:33.132Z,6.10
2023-10-10T07:13:37.460Z,5.68
2023-10-10T07:15:41.655Z,5.93
2023-10-10T07:17:43.695Z,5.53
2023-10-10T07:20:02.236Z,5.38
2023-10-10T07:22:05.142Z,5.65
2023-10-10T07:24:15.114Z,5.57
2023-10-10T07:26:24.652Z,5.85
2023-10-10T07:28:27.766Z,5.43
2023-10-10T07:30:35.858Z,6.03
2023-10-10T07:32:40.592Z,5.82
2023-10-10T07:34:43.531Z,6.28
2023-10-10T07:36:45.410Z,5.50
2023-10-10T07:38:47.233Z,6.47
2023-10-10T07:40:50.017Z,5.57
2023-10-10T07:42:52.212Z,6.25
2023-10-10T07:45:00.270Z,6.00
2023-10-10T07:47:11.077Z,5.80
2023-10-10T07:49:18.228Z,5.93
2023-10-10T07:51:29.040Z,6.63
2023-10-10T07:53:35.765Z,6.35
2023-10-10T07:56:01.168Z,6.55
2023-10-10T07:58:07.597Z,7.05
2023-10-10T08:00:18.488Z,6.53
2023-10-10T08:02:26.650Z,6.65
2023-10-10T08:04:28.935Z,7.05
2023-10-10T08:06:33.024Z,7.18
2023-10-10T08:08:37.542Z,7.68
2023-10-10T08:10:39.998Z,7.05
2023-10-10T08:12:43.474Z,7.78
2023-10-10T08:14:45.384Z,7.47
2023-10-10T08:16:47.371Z,8.23
2023-10-10T08:18:49.361Z,8.70
2023-10-10T08:20:51.098Z,8.43
2023-10-10T08:22:53.701Z,8.60
2023-10-10T08:24:56.006Z,8.38
2023-10-10T08:26:57.726Z,8.30
2023-10-10T08:28:59.433Z,8.45
2023-10-10T08:31:01.421Z,8.82
2023-10-10T08:33:04.908Z,8.98
2023-10-10T08:35:09.465Z,8.73
2023-10-10T08:37:11.492Z,8.65
2023-10-10T08:39:26.628Z,8.43
2023-10-10T08:41:31.460Z,9.60
2023-10-10T08:43:37.086Z,9.32
2023-10-10T08:45:41.829Z,8.80
2023-10-10T08:47:44.556Z,8.82
2023-10-10T08:49:49.141Z,8.65
2023-10-10T08:51:54.548Z,8.30
2023-10-10T08:53:56.845Z,8.50
2023-10-10T08:55:58.795Z,8.85
2023-10-10T08:58:00.688Z,8.70
2023-10-10T09:00:02.589Z,8.93
2023-10-10T09:02:17.815Z,8.98
2023-10-10T09:04:21.375Z,9.38
2023-10-10T09:06:23.518Z,8.90
2023-10-10T09:08:34.650Z,9.23
2023-10-10T09:10:40.957Z,8.30
2023-10-10T09:12:54.839Z,9.55
2023-10-10T09:14:56.808Z,9.95
2023-10-10T09:16:58.549Z,10.18
2023-10-10T09:19:09.848Z,9.80
2023-10-10T09:21:20.227Z,10.43
2023-10-10T09:23:28.569Z,10.73
2023-10-10T09:25:42.621Z,10.70
2023-10-10T09:27:58.609Z,10.55
2023-10-10T09:30:03.049Z,9.82
2023-10-10T09:32:07.012Z,9.82
2023-10-10T09:34:09.897Z,8.82
2023-10-10T09:36:17.380Z,9.88
2023-10-10T09:38:22.503Z,8.57
2023-10-10T09:40:25.902Z,8.75
2023-10-10T09:42:44.536Z,9.13
2023-10-10T09:44:55.426Z,8.85
2023-10-10T09:47:07.140Z,9.23
2023-10-10T09:49:09.440Z,8.65
2023-10-10T09:51:31.775Z,9.55
2023-10-10T09:53:34.509Z,8.60
2023-10-10T09:55:40.732Z,8.88
2023-10-10T09:58:02.428Z,8.13
2023-10-10T10:00:23.918Z,9.13
2023-10-10T10:02:42.023Z,8.10
2023-10-10T10:04:46.229Z,8.88
2023-10-10T10:07:07.167Z,9.02
2023-10-10T10:09:19.251Z,7.97
2023-10-10T10:11:35.192Z,8.35
2023-10-10T10:13:57.746Z,7.65
2023-10-10T10:18:47.019Z,8.00
2023-10-10T10:20:50.791Z,8.38
2023-10-10T10:22:55.421Z,8.73
2023-10-10T10:25:30.175Z,9.63
2023-10-10T10:27:41.030Z,9.30
2023-10-10T10:29:55.293Z,9.90
2023-10-10T10:32:01.706Z,10.18
2023-10-10T10:34:32.101Z,10.70
2023-10-10T10:37:08.174Z,10.85
2023-10-10T10:39:23.085Z,11.85
2023-10-10T10:41:43.249Z,12.50
2023-10-10T10:43:52.461Z,12.32
2023-10-10T10:46:13.480Z,12.65
2023-10-10T10:48:35.569Z,12.57
2023-10-10T10:50:42.405Z,12.93
2023-10-10T10:52:57.280Z,13.70
2023-10-10T10:55:20.500Z,13.63
2023-10-10T10:59:46.442Z,14.25
2023-10-10T11:01:53.943Z,14.38
2023-10-10T11:03:57.022Z,14.90
2023-10-10T11:05:59.403Z,14.00
2023-10-10T11:08:13.130Z,14.55
2023-10-10T11:10:35.026Z,14.55
2023-10-10T11:12:38.662Z,14.52
2023-10-10T11:14:47.420Z,15.93
2023-10-10T11:16:57.823Z,15.40
2023-10-10T11:19:03.857Z,16.27
2023-10-10T11:21:12.772Z,16.67
2023-10-10T11:23:15.990Z,16.30
2023-10-10T11:25:28.325Z,16.00
2023-10-10T11:27:31.293Z,17.23
2023-10-10T11:30:02.309Z,18.08
2023-10-10T11:32:12.817Z,18.02
2023-10-10T11:34:27.485Z,18.08
2023-10-10T11:36:39.577Z,17.23
2023-10-10T11:38:41.659Z,17.30
2023-10-10T11:40:45.094Z,17.85
2023-10-10T11:42:51.185Z,18.88
2023-10-10T11:44:55.593Z,17.95
2023-10-10T11:47:06.250Z,17.90
2023-10-10T11:49:16.486Z,17.77
2023-10-10T11:51:33.831Z,16.98
2023-10-10T11:53:38.254Z,17.45
2023-10-10T11:55:41.979Z,16.77
2023-10-10T11:57:43.960Z,17.58
2023-10-10T11:59:48.651Z,16.85
2023-10-10T12:01:55.901Z,17.73
2023-10-10T12:04:07.942Z,16.85
2023-10-10T12:06:15.880Z,17.15
2023-10-10T12:08:25.113Z,16.88
2023-10-10T12:10:44.136Z,17.95
2023-10-10T12:12:47.829Z,17.27
2023-10-10T12:14:51.907Z,17.08
2023-10-10T12:16:58.857Z,17.50
2023-10-10T12:19:00.948Z,16.65
2023-10-10T12:21:04.044Z,17.25
2023-10-10T12:23:05.894Z,18.17
2023-10-10T12:25:15.315Z,17.25
2023-10-10T12:27:17.356Z,17.05
2023-10-10T12:29:19.134Z,17.77
2023-10-10T12:31:23.966Z,19.23
2023-10-10T12:33:25.987Z,17.95
2023-10-10T12:35:28.733Z,18.65
2023-10-10T12:37:37.650Z,19.30
2023-10-10T12:39:39.602Z,18.88
2023-10-10T12:41:47.827Z,18.98
2023-10-10T12:43:52.919Z,18.85
2023-10-10T12:45:57.394Z,18.25
2023-10-10T12:48:04.074Z,18.65
2023-10-10T12:50:14.389Z,20.52
2023-10-10T12:52:19.323Z,19.13
2023-10-10T12:54:21.893Z,20.27
2023-10-10T12:56:24.930Z,19.67
2023-10-10T12:58:27.703Z,20.85
2023-10-10T13:00:34.846Z,19.45
2023-10-10T13:02:36.720Z,21.58
2023-10-10T13:04:39.801Z,20.77
2023-10-10T13:06:41.635Z,21.85
2023-10-10T13:08:51.708Z,22.23
2023-10-10T13:10:56.510Z,22.10
2023-10-10T13:12:58.739Z,21.70
2023-10-10T13:15:20.018Z,24.33
2023-10-10T13:17:24.683Z,23.75
2023-10-10T13:19:26.788Z,21.27
2023-10-10T13:21:28.509Z,22.75
2023-10-10T13:23:31.810Z,23.58
2023-10-10T13:25:39.173Z,23.23
2023-10-10T13:27:40.934Z,23.60
2023-10-10T13:29:43.005Z,23.98
2023-10-10T13:31:48.181Z,22.55
2023-10-10T13:33:50.078Z,24.20
2023-10-10T13:35:52.788Z,23.58
2023-10-10T13:37:54.505Z,23.77
2023-10-10T13:39:57.002Z,23.08
2023-10-10T13:41:58.809Z,25.15
2023-10-10T13:44:04.035Z,24.77
2023-10-10T13:46:07.217Z,21.85
2023-10-10T13:48:15.616Z,23.88
2023-10-10T13:52:33.212Z,22.85
2023-10-10T13:54:35.026Z,23.00
2023-10-10T13:56:36.940Z,23.08
2023-10-10T13:58:41.900Z,23.83
2023-10-10T14:00:54.147Z,24.25
2023-10-10T14:03:01.474Z,23.73
2023-10-10T14:05:03.991Z,23.98
2023-10-10T14:07:07.453Z,25.60
2023-10-10T14:09:11.242Z,24.65
2023-10-10T14:11:14.636Z,24.52
2023-10-10T14:13:21.614Z,24.88
2023-10-10T14:15:23.511Z,25.13
2023-10-10T14:17:28.324Z,24.73
2023-10-10T14:19:30.166Z,25.42
2023-10-10T14:21:32.363Z,24.80
2023-10-10T14:23:36.854Z,25.40
2023-10-10T14:25:38.780Z,23.38
2023-10-10T14:27:45.341Z,22.60
2023-10-10T14:29:47.264Z,22.38
2023-10-10T14:31:49.190Z,22.90
2023-10-10T14:33:55.433Z,22.73
2023-10-10T14:35:57.272Z,22.30
2023-10-10T14:38:02.831Z,20.45
2023-10-10T14:40:09.804Z,20.02
2023-10-10T14:42:12.379Z,20.75
2023-10-10T14:44:14.201Z,20.02
2023-10-10T14:46:22.955Z,19.38
2023-10-10T14:48:25.102Z,18.48
2023-10-10T14:50:26.988Z,17.40
2023-10-10T14:52:36.431Z,17.70
2023-10-10T14:54:43.816Z,18.60
2023-10-10T14:56:51.582Z,17.13
2023-10-10T14:58:53.378Z,17.13
2023-10-10T15:00:58.526Z,16.98
2023-10-10T15:03:00.671Z,15.88
2023-10-10T15:05:12.561Z,17.00
2023-10-10T15:07:14.389Z,15.95
2023-10-10T15:09:21.667Z,15.07
2023-10-10T15:11:24.586Z,14.82
2023-10-10T15:13:27.580Z,14.88
2023-10-10T15:15:31.198Z,15.00
2023-10-10T15:17:32.976Z,15.65
2023-10-10T15:19:34.907Z,15.30
2023-10-10T15:21:37.556Z,14.68
2023-10-10T15:23:39.791Z,14.80
2023-10-10T15:25:42.667Z,14.73
2023-10-10T15:27:44.614Z,14.60
2023-10-10T15:29:46.365Z,14.55
2023-10-10T15:31:48.331Z,14.05
2023-10-10T15:33:50.387Z,13.70
2023-10-10T15:35:54.088Z,13.75
2023-10-10T15:37:56.104Z,14.13
2023-10-10T15:39:59.043Z,13.70
2023-10-10T15:42:06.057Z,12.70
2023-10-10T15:44:09.487Z,13.77
2023-10-10T15:46:12.384Z,12.63
2023-10-10T15:48:24.711Z,12.80
2023-10-10T15:50:26.622Z,13.10
2023-10-10T15:52:29.363Z,12.75
2023-10-10T15:54:35.909Z,13.00
2023-10-10T15:56:38.428Z,13.02
2023-10-10T15:58:51.901Z,12.65
2023-10-10T16:00:54.118Z,12.95
2023-10-10T16:02:57.264Z,11.80
2023-10-10T16:05:01.551Z,11.45
2023-10-10T16:07:05.332Z,11.52
2023-10-10T16:09:13.675Z,11.30
2023-10-10T16:11:18.334Z,10.90
2023-10-10T16:13:20.255Z,10.88
2023-10-10T16:15:30.864Z,10.48
2023-10-10T16:17:33.302Z,10.45
2023-10-10T16:19:37.465Z,10.23
2023-10-10T16:21:42.022Z,11.10
2023-10-10T16:23:45.065Z,9.77
2023-10-10T16:25:46.834Z,9.90
2023-10-10T16:27:48.556Z,10.02
2023-10-10T16:29:56.924Z,9.05
2023-10-10T16:34:03.622Z,9.32
2023-10-10T16:36:10.826Z,9.45
2023-10-10T16:38:12.597Z,8.93
2023-10-10T16:40:18.730Z,8.85
2023-10-10T16:42:21.157Z,8.80
2023-10-10T16:44:23.060Z,8.75
2023-10-10T16:46:26.932Z,8.70
2023-10-10T16:48:32.693Z,8.32
2023-10-10T16:50:35.344Z,8.20
2023-10-10T16:52:41.036Z,7.65
2023-10-10T16:54:53.289Z,7.53
2023-10-10T16:56:59.022Z,7.45
2023-10-10T16:59:01.144Z,7.00
2023-10-10T17:01:07.131Z,7.60
2023-10-10T17:03:13.554Z,7.07
2023-10-10T17:05:15.378Z,6.80
2023-10-10T17:07:17.080Z,6.50
2023-10-10T17:09:18.858Z,6.80
2023-10-10T17:11:22.339Z,7.18
2023-10-10T17:13:24.632Z,6.22
2023-10-10T17:15:26.343Z,6.57
2023-10-10T17:17:28.235Z,5.97
2023-10-10T17:19:32.845Z,5.88
2023-10-10T17:21:35.669Z,6.30
2023-10-10T17:23:37.696Z,6.20
2023-10-10T17:25:41.328Z,5.60
2023-10-10T17:27:45.280Z,5.97
2023-10-10T17:29:47.289Z,5.32
2023-10-10T17:31:49.171Z,5.70
2023-10-10T17:33:55.091Z,5.30
2023-10-10T17:35:58.127Z,5.55
2023-10-10T17:38:00.764Z,5.65
2023-10-10T17:40:14.189Z,5.75
2023-10-10T17:42:15.988Z,6.35
2023-10-10T17:44:19.999Z,5.53
2023-10-10T17:46:22.945Z,5.78
2023-10-10T17:48:31.901Z,6.18
2023-10-10T17:50:34.949Z,6.10
2023-10-10T17:52:36.990Z,5.78
2023-10-10T17:54:42.171Z,5.82
2023-10-10T17:56:46.309Z,5.63
2023-10-10T17:58:48.041Z,5.43
2023-10-10T18:00:53.869Z,5.88
2023-10-10T18:02:57.518Z,5.32
2023-10-10T18:04:59.859Z,5.18
2023-10-10T18:07:01.632Z,5.85
2023-10-10T18:09:09.733Z,6.88
2023-10-10T18:13:13.782Z,5.38
2023-10-10T18:15:20.097Z,5.80
2023-10-10T18:17:23.511Z,5.70
2023-10-10T18:19:27.431Z,5.68
2023-10-10T18:21:31.280Z,7.65
2023-10-10T18:23:33.151Z,6.53
2023-10-10T18:25:39.339Z,5.60
2023-10-10T18:27:46.284Z,5.43
2023-10-10T18:29:49.684Z,6.00
2023-10-10T18:31:51.662Z,5.57
2023-10-10T18:33:53.537Z,5.97
2023-10-10T18:35:55.775Z,5.32
2023-10-10T18:37:57.778Z,6.28
2023-10-10T18:39:59.498Z,6.10
2023-10-10T18:42:02.037Z,6.10
2023-10-10T18:44:05.266Z,6.28
2023-10-10T18:46:07.198Z,5.95
2023-10-10T18:48:12.138Z,5.93
2023-10-10T18:50:20.479Z,5.78
2023-10-10T18:52:23.687Z,5.60
2023-10-10T18:54:25.402Z,5.80
2023-10-10T18:56:27.195Z,5.32
2023-10-10T18:58:29.897Z,5.50
2023-10-10T19:00:35.436Z,5.72
2023-10-10T19:02:37.170Z,5.97
2023-10-10T19:04:41.170Z,6.97
2023-10-10T19:06:42.937Z,6.20
2023-10-10T19:08:45.611Z,5.75
2023-10-10T19:10:53.616Z,6.03
2023-10-10T19:12:57.026Z,6.00
2023-10-10T19:14:58.796Z,6.53
2023-10-10T19:17:01.687Z,7.07
2023-10-10T19:19:06.155Z,6.10
2023-10-10T19:21:17.350Z,6.15
2023-10-10T19:23:20.175Z,5.70
2023-10-10T19:25:27.873Z,5.22
2023-10-10T19:27:29.677Z,5.95
2023-10-10T19:29:31.459Z,5.85
2023-10-10T19:31:40.155Z,6.28
2023-10-10T19:33:41.957Z,6.18
2023-10-10T19:35:47.112Z,5.32
2023-10-10T19:37:51.790Z,6.18
2023-10-10T19:39:54.735Z,5.82
2023-10-10T19:41:58.766Z,6.13
2023-10-10T19:44:00.641Z,5.88
2023-10-10T19:46:04.773Z,6.13
2023-10-10T19:48:07.946Z,5.93
2023-10-10T19:50:10.756Z,5.78
2023-10-10T19:52:12.585Z,7.00
2023-10-10T19:54:14.502Z,6.47
2023-10-10T19:56:16.498Z,6.57
2023-10-10T19:58:22.404Z,6.43
2023-10-10T20:00:25.516Z,6.20
2023-10-10T20:02:27.345Z,6.43
2023-10-10T20:04:29.422Z,6.00
2023-10-10T20:06:31.527Z,5.82
2023-10-10T20:08:36.177Z,6.60
2023-10-10T20:10:38.742Z,6.63
2023-10-10T20:12:40.862Z,6.40
2023-10-10T20:14:42.615Z,7.72
2023-10-10T20:16:44.384Z,6.80
2023-10-10T20:18:46.932Z,6.22
2023-10-10T20:20:49.822Z,6.40
2023-10-10T20:22:51.584Z,6.80
2023-10-10T20:24:54.609Z,6.53
2023-10-10T20:26:57.359Z,6.32
2023-10-10T20:28:59.177Z,6.40
2023-10-10T20:31:07.856Z,6.93
2023-10-10T20:33:16.766Z,7.80
2023-10-10T20:35:25.884Z,6.93
2023-10-10T20:39:29.517Z,6.78
2023-10-10T20:41:34.004Z,6.25
2023-10-10T20:43:37.561Z,6.40
2023-10-10T20:45:39.539Z,6.68
2023-10-10T20:47:44.250Z,6.55
2023-10-10T20:49:46.066Z,6.22
2023-10-10T20:51:49.750Z,6.10
2023-10-10T20:53:51.948Z,6.03
2023-10-10T20:55:53.726Z,10.73
2023-10-10T20:58:00.055Z,11.68
2023-10-10T21:00:07.199Z,6.93
2023-10-10T21:02:08.930Z,6.45
2023-10-10T21:04:10.712Z,6.22
2023-10-10T21:06:13.281Z,6.47
2023-10-10T21:08:19.345Z,5.95
2023-10-10T21:10:33.739Z,6.70
2023-10-10T21:12:35.460Z,6.68
2023-10-10T21:14:37.808Z,6.13
2023-10-10T21:16:41.585Z,6.00
2023-10-10T21:18:43.690Z,5.75
2023-10-10T21:20:56.836Z,6.15
2023-10-10T21:23:04.402Z,5.57
2023-10-10T21:25:07.362Z,5.28
2023-10-10T21:27:09.203Z,5.43
2023-10-10T21:29:10.902Z,5.63
2023-10-10T21:31:12.871Z,5.50
2023-10-10T21:33:15.824Z,5.70
2023-10-10T21:35:20.589Z,5.00
2023-10-10T21:37:23.089Z,6.10
2023-10-10T21:39:26.364Z,6.07
2023-10-10T21:41:29.579Z,5.90
2023-10-10T21:43:32.419Z,5.15
2023-10-10T21:45:34.585Z,5.30
2023-10-10T21:47:37.552Z,5.40
2023-10-10T21:49:39.359Z,5.40
2023-10-10T21:51:41.793Z,5.10
2023-10-10T21:53:43.722Z,4.90
2023-10-10T21:55:45.491Z,4.60
2023-10-10T21:57:57.164Z,5.35
2023-10-10T21:59:59.137Z,5.22
2023-10-10T22:02:01.083Z,5.35
2023-10-10T22:04:04.724Z,5.30
2023-10-10T22:06:08.705Z,5.60
2023-10-10T22:08:11.802Z,5.07
2023-10-10T22:10:15.293Z,4.85
2023-10-10T22:12:17.027Z,4.75
2023-10-10T22:14:18.743Z,4.53
2023-10-10T22:16:20.494Z,5.13
2023-10-10T22:18:22.312Z,4.93
2023-10-10T22:20:25.625Z,5.32
2023-10-10T22:22:28.090Z,4.15
2023-10-10T22:24:30.137Z,5.32
2023-10-10T22:26:32.024Z,5.05
2023-10-10T22:28:33.839Z,4.88
2023-10-10T22:30:38.806Z,4.95
2023-10-10T22:32:46.044Z,4.90
2023-10-10T22:34:47.967Z,4.57
2023-10-10T22:36:58.679Z,5.28
2023-10-10T22:39:08.700Z,4.43
2023-10-10T22:41:12.001Z,4.40
2023-10-10T22:43:16.595Z,4.75
2023-10-10T22:45:21.428Z,4.90
2023-10-10T22:47:23.305Z,4.80
2023-10-10T22:49:25.003Z,5.07
2023-10-10T22:51:26.845Z,4.93
2023-10-10T22:53:30.327Z,5.28
2023-10-10T22:55:36.533Z,4.20
2023-10-10T22:57:38.447Z,4.85
2023-10-10T22:59:40.220Z,5.00
2023-10-10T23:01:46.595Z,4.85
2023-10-10T23:03:48.588Z,4.25
2023-10-10T23:05:51.973Z,4.80
2023-10-10T23:07:54.608Z,4.57
2023-10-10T23:09:56.330Z,4.65
2023-10-10T23:11:58.235Z,4.40
2023-10-10T23:13:59.954Z,4.63
2023-10-10T23:16:01.841Z,4.47
2023-10-10T23:18:03.744Z,4.43
2023-10-10T23:20:14.536Z,4.60
2023-10-10T23:22:16.486Z,4.53
2023-10-10T23:24:18.346Z,4.25
2023-10-10T23:26:20.996Z,4.13
2023-10-10T23:28:22.793Z,5.00
2023-10-10T23:30:29.123Z,5.10
2023-10-10T23:32:32.437Z,4.25
2023-10-10T23:34:34.360Z,4.90
2023-10-10T23:36:37.389Z,4.53
2023-10-10T23:38:45.621Z,4.47
2023-10-10T23:40:47.840Z,4.15
2023-10-10T23:42:52.723Z,4.60
2023-10-10T23:44:54.596Z,4.38
2023-10-10T23:46:56.429Z,4.28
2023-10-10T23:48:58.664Z,4.50
2023-10-10T23:51:01.031Z,4.47
2023-10-10T23:53:03.566Z,4.80
2023-10-10T23:55:05.910Z,4.53
2023-10-10T23:57:07.671Z,4.30
2023-10-10T23:59:11.155Z,4.28
